createdAt,value
2023-05-21T00:00:15.681Z,6.93
2023-05-21T00:02:44.040Z,7.55
2023-05-21T00:05:15.045Z,5.50
2023-05-21T00:07:43.390Z,6.00
2023-05-21T00:10:11.707Z,7.70
2023-05-21T00:12:40.496Z,4.70
2023-05-21T00:15:09.724Z,5.53
2023-05-21T00:17:38.327Z,6.47
2023-05-21T00:20:07.662Z,4.82
2023-05-21T00:22:36.530Z,4.68
2023-05-21T00:25:05.411Z,5.30
2023-05-21T00:27:33.335Z,5.15
2023-05-21T00:30:01.765Z,4.47
2023-05-21T00:32:30.874Z,4.82
2023-05-21T00:34:58.871Z,5.72
2023-05-21T00:37:27.044Z,6.05
2023-05-21T00:39:57.573Z,5.72
2023-05-21T00:42:27.535Z,7.22
2023-05-21T00:44:55.512Z,5.03
2023-05-21T00:47:23.685Z,7.97
2023-05-21T00:49:53.567Z,6.13
2023-05-21T00:52:27.299Z,6.80
2023-05-21T00:54:55.297Z,5.88
2023-05-21T00:57:27.686Z,6.03
2023-05-21T00:59:56.350Z,6.45
2023-05-21T01:02:24.685Z,6.25
2023-05-21T01:04:56.484Z,7.90
2023-05-21T01:07:24.801Z,6.88
2023-05-21T01:09:54.522Z,5.38
2023-05-21T01:12:23.689Z,8.00
2023-05-21T01:14:52.207Z,6.72
2023-05-21T01:17:24.588Z,5.60
2023-05-21T01:19:54.944Z,4.95
2023-05-21T01:22:25.253Z,5.22
2023-05-21T01:24:55.821Z,4.27
2023-05-21T01:27:24.226Z,5.10
2023-05-21T01:29:52.696Z,5.82
2023-05-21T01:32:46.082Z,8.20
2023-05-21T01:35:36.055Z,4.90
2023-05-21T01:38:16.292Z,4.45
2023-05-21T01:40:54.672Z,5.30
2023-05-21T01:43:24.017Z,6.22
2023-05-21T01:45:55.123Z,7.70
2023-05-21T01:48:25.823Z,7.50
2023-05-21T01:50:55.685Z,6.78
2023-05-21T01:53:23.784Z,5.40
2023-05-21T01:55:52.005Z,5.40
2023-05-21T01:58:21.860Z,6.25
2023-05-21T02:00:53.081Z,5.95
2023-05-21T02:03:22.343Z,7.35
2023-05-21T02:05:52.220Z,6.82
2023-05-21T02:08:21.152Z,8.20
2023-05-21T02:10:49.643Z,6.32
2023-05-21T02:13:21.525Z,6.70
2023-05-21T02:15:51.972Z,5.82
2023-05-21T02:18:22.520Z,5.40
2023-05-21T02:20:50.934Z,5.00
2023-05-21T02:23:19.392Z,6.25
2023-05-21T02:25:48.639Z,6.57
2023-05-21T02:28:16.936Z,9.38
2023-05-21T02:30:48.844Z,8.23
2023-05-21T02:33:17.756Z,7.57
2023-05-21T02:35:47.320Z,9.85
2023-05-21T02:38:20.228Z,9.70
2023-05-21T02:40:48.860Z,6.90
2023-05-21T02:43:17.091Z,6.88
2023-05-21T02:45:46.440Z,7.53
2023-05-21T02:48:15.895Z,8.65
2023-05-21T02:50:44.151Z,5.75
2023-05-21T02:53:12.198Z,8.13
2023-05-21T02:55:40.260Z,6.78
2023-05-21T02:58:08.081Z,7.13
2023-05-21T03:00:36.469Z,8.48
2023-05-21T03:03:05.673Z,7.93
2023-05-21T03:05:33.942Z,14.20
2023-05-21T03:08:02.194Z,8.15
2023-05-21T03:10:30.417Z,8.15
2023-05-21T03:12:58.829Z,8.32
2023-05-21T03:15:27.487Z,7.00
2023-05-21T03:17:55.930Z,7.57
2023-05-21T03:20:25.361Z,6.80
2023-05-21T03:22:55.338Z,8.10
2023-05-21T03:25:25.501Z,6.97
2023-05-21T03:27:55.494Z,7.10
2023-05-21T03:30:46.691Z,7.88
2023-05-21T03:33:37.746Z,5.80
2023-05-21T03:36:26.016Z,6.22
2023-05-21T03:38:54.055Z,7.55
2023-05-21T03:41:22.567Z,6.40
2023-05-21T03:43:58.649Z,9.20
2023-05-21T03:46:31.353Z,7.03
2023-05-21T03:49:07.032Z,11.32
2023-05-21T03:51:38.630Z,7.28
2023-05-21T03:54:08.164Z,10.38
2023-05-21T03:56:38.263Z,7.65
2023-05-21T03:59:06.335Z,7.15
2023-05-21T04:05:15.949Z,8.15
2023-05-21T04:07:46.558Z,8.40
2023-05-21T04:10:14.723Z,7.03
2023-05-21T04:12:45.072Z,6.03
2023-05-21T04:15:13.054Z,8.15
2023-05-21T04:17:41.818Z,8.48
2023-05-21T04:20:10.188Z,8.77
2023-05-21T04:22:38.621Z,11.38
2023-05-21T04:25:06.966Z,10.38
2023-05-21T04:27:38.739Z,11.77
2023-05-21T04:30:07.622Z,10.23
2023-05-21T04:32:38.756Z,10.18
2023-05-21T04:35:09.289Z,11.15
2023-05-21T04:37:37.851Z,8.90
2023-05-21T04:40:07.126Z,9.80
2023-05-21T04:42:35.293Z,9.77
2023-05-21T04:45:05.316Z,10.60
2023-05-21T04:47:36.322Z,8.18
2023-05-21T04:50:05.845Z,10.05
2023-05-21T04:52:35.168Z,7.03
2023-05-21T04:55:03.652Z,8.45
2023-05-21T04:57:31.718Z,8.43
2023-05-21T05:00:00.994Z,7.60
2023-05-21T05:02:36.648Z,8.85
2023-05-21T05:05:05.094Z,10.02
2023-05-21T05:07:33.220Z,9.43
2023-05-21T05:10:01.431Z,8.45
2023-05-21T05:12:29.643Z,10.15
2023-05-21T05:14:57.986Z,9.70
2023-05-21T05:17:26.349Z,9.05
2023-05-21T05:19:54.538Z,8.88
2023-05-21T05:22:22.844Z,9.13
2023-05-21T05:24:51.481Z,10.43
2023-05-21T05:27:20.190Z,9.73
2023-05-21T05:29:49.053Z,12.05
2023-05-21T05:32:16.895Z,11.73
2023-05-21T05:34:46.633Z,12.00
2023-05-21T05:37:15.120Z,19.55
2023-05-21T05:39:43.084Z,11.80
2023-05-21T05:42:11.249Z,11.57
2023-05-21T05:44:39.268Z,12.57
2023-05-21T05:47:11.055Z,13.75
2023-05-21T05:49:42.617Z,16.80
2023-05-21T05:52:10.624Z,13.65
2023-05-21T05:54:38.968Z,13.95
2023-05-21T05:57:07.250Z,11.50
2023-05-21T05:59:36.164Z,14.27
2023-05-21T06:02:05.805Z,12.27
2023-05-21T06:04:34.017Z,13.02
2023-05-21T06:07:02.195Z,12.13
2023-05-21T06:09:30.157Z,13.65
2023-05-21T06:11:58.043Z,14.15
2023-05-21T06:14:26.176Z,13.73
2023-05-21T06:16:54.195Z,13.65
2023-05-21T06:19:23.761Z,12.68
2023-05-21T06:21:51.846Z,14.90
2023-05-21T06:24:19.839Z,15.00
2023-05-21T06:26:47.910Z,13.88
2023-05-21T06:29:17.258Z,14.77
2023-05-21T06:34:16.197Z,13.85
2023-05-21T06:36:44.171Z,11.95
2023-05-21T06:39:12.749Z,15.93
2023-05-21T06:41:40.955Z,14.98
2023-05-21T06:44:25.388Z,11.65
2023-05-21T06:47:07.958Z,13.95
2023-05-21T06:49:36.483Z,15.02
2023-05-21T06:52:04.733Z,14.30
2023-05-21T06:54:33.109Z,16.48
2023-05-21T06:57:01.946Z,14.48
2023-05-21T06:59:30.047Z,19.25
2023-05-21T07:01:58.039Z,16.90
2023-05-21T07:04:26.334Z,19.25
2023-05-21T07:06:54.694Z,14.40
2023-05-21T07:09:24.458Z,15.65
2023-05-21T07:11:54.760Z,14.65
2023-05-21T07:14:25.035Z,15.15
2023-05-21T07:16:53.660Z,15.63
2023-05-21T07:19:21.877Z,16.38
2023-05-21T07:21:50.824Z,15.20
2023-05-21T07:24:18.934Z,15.38
2023-05-21T07:26:46.963Z,15.85
2023-05-21T07:29:14.995Z,16.83
2023-05-21T07:31:42.979Z,14.73
2023-05-21T07:34:11.871Z,18.02
2023-05-21T07:36:41.903Z,18.33
2023-05-21T07:39:10.302Z,15.30
2023-05-21T07:41:39.133Z,17.58
2023-05-21T07:44:09.615Z,17.45
2023-05-21T07:46:41.522Z,16.15
2023-05-21T07:49:16.804Z,15.95
2023-05-21T07:51:46.123Z,18.55
2023-05-21T07:54:14.143Z,16.70
2023-05-21T07:56:42.087Z,14.35
2023-05-21T07:59:27.518Z,13.32
2023-05-21T08:01:56.766Z,17.05
2023-05-21T08:04:24.873Z,15.55
2023-05-21T08:06:54.045Z,13.00
2023-05-21T08:09:22.065Z,16.25
2023-05-21T08:11:50.135Z,13.20
2023-05-21T08:14:18.438Z,15.30
2023-05-21T08:16:47.357Z,17.65
2023-05-21T08:19:15.525Z,17.17
2023-05-21T08:21:44.090Z,15.05
2023-05-21T08:24:12.867Z,15.45
2023-05-21T08:26:40.890Z,18.45
2023-05-21T08:29:08.924Z,15.95
2023-05-21T08:31:36.943Z,13.98
2023-05-21T08:34:04.879Z,16.38
2023-05-21T08:36:43.638Z,14.13
2023-05-21T08:39:30.607Z,15.00
2023-05-21T08:42:35.645Z,17.48
2023-05-21T08:45:09.948Z,16.27
2023-05-21T08:47:38.640Z,13.82
2023-05-21T08:50:12.872Z,15.93
2023-05-21T08:52:41.784Z,15.27
2023-05-21T08:55:10.913Z,15.70
2023-05-21T09:00:16.129Z,13.15
2023-05-21T09:02:45.061Z,18.13
2023-05-21T09:05:15.149Z,14.05
2023-05-21T09:08:03.500Z,17.88
2023-05-21T09:10:43.204Z,15.68
2023-05-21T09:13:11.803Z,17.13
2023-05-21T09:15:40.069Z,16.33
2023-05-21T09:18:09.115Z,16.02
2023-05-21T09:21:26.724Z,17.30
2023-05-21T09:23:59.581Z,14.25
2023-05-21T09:26:28.050Z,17.65
2023-05-21T09:29:01.120Z,15.25
2023-05-21T09:31:31.001Z,13.45
2023-05-21T09:33:59.183Z,14.25
2023-05-21T09:36:29.865Z,15.90
2023-05-21T09:39:00.358Z,14.10
2023-05-21T09:41:37.130Z,17.23
2023-05-21T09:44:06.208Z,14.07
2023-05-21T09:46:40.821Z,16.73
2023-05-21T09:49:24.444Z,15.13
2023-05-21T09:51:58.779Z,14.30
2023-05-21T09:54:35.830Z,13.68
2023-05-21T09:57:03.927Z,17.08
2023-05-21T09:59:38.875Z,15.23
2023-05-21T10:02:22.099Z,16.48
2023-05-21T10:04:52.043Z,15.27
2023-05-21T10:07:28.047Z,16.27
2023-05-21T10:09:57.573Z,14.85
2023-05-21T10:12:26.297Z,17.30
2023-05-21T10:15:02.408Z,19.65
2023-05-21T10:17:31.781Z,14.93
2023-05-21T10:20:01.951Z,15.57
2023-05-21T10:22:30.595Z,14.48
2023-05-21T10:24:59.053Z,14.77
2023-05-21T10:27:28.422Z,13.85
2023-05-21T10:29:58.639Z,16.42
2023-05-21T10:32:28.264Z,15.38
2023-05-21T10:34:57.396Z,15.73
2023-05-21T10:37:27.918Z,15.10
2023-05-21T10:39:56.890Z,14.82
2023-05-21T10:42:43.492Z,16.17
2023-05-21T10:45:43.382Z,14.77
2023-05-21T10:48:39.543Z,15.18
2023-05-21T10:51:27.306Z,14.77
2023-05-21T10:54:16.412Z,19.67
2023-05-21T10:57:09.303Z,16.10
2023-05-21T10:59:49.831Z,13.80
2023-05-21T11:02:19.995Z,17.23
2023-05-21T11:04:49.477Z,17.50
2023-05-21T11:07:27.291Z,14.73
2023-05-21T11:09:58.379Z,14.95
2023-05-21T11:12:27.582Z,12.90
2023-05-21T11:14:59.155Z,15.73
2023-05-21T11:17:42.257Z,13.70
2023-05-21T11:20:14.505Z,13.73
2023-05-21T11:22:42.608Z,15.98
2023-05-21T11:25:12.762Z,15.30
2023-05-21T11:35:29.921Z,13.95
2023-05-21T11:37:57.869Z,12.50
2023-05-21T11:40:26.822Z,12.77
2023-05-21T11:43:00.712Z,11.23
2023-05-21T11:45:33.029Z,13.80
2023-05-21T11:48:01.538Z,12.45
2023-05-21T11:50:31.054Z,13.18
2023-05-21T11:53:00.789Z,11.68
2023-05-21T11:55:28.839Z,11.25
2023-05-21T11:57:57.110Z,12.63
2023-05-21T12:00:25.031Z,12.02
2023-05-21T12:02:53.730Z,12.88
2023-05-21T12:05:22.740Z,13.38
2023-05-21T12:07:51.326Z,12.60
2023-05-21T12:10:23.178Z,11.20
2023-05-21T12:12:56.563Z,11.10
2023-05-21T12:15:26.544Z,13.02
2023-05-21T12:17:55.630Z,10.48
2023-05-21T12:20:24.109Z,10.30
2023-05-21T12:22:52.223Z,12.05
2023-05-21T12:25:21.612Z,11.90
2023-05-21T12:27:52.998Z,11.93
2023-05-21T12:30:21.677Z,10.73
2023-05-21T12:32:50.526Z,11.70
2023-05-21T12:35:23.654Z,10.52
2023-05-21T12:37:52.546Z,11.80
2023-05-21T12:40:21.223Z,10.80
2023-05-21T12:42:49.984Z,13.10
2023-05-21T12:45:19.237Z,9.85
2023-05-21T12:47:50.803Z,9.73
2023-05-21T12:50:21.934Z,10.05
2023-05-21T12:52:50.623Z,8.70
2023-05-21T12:55:18.930Z,10.02
2023-05-21T12:57:47.204Z,10.38
2023-05-21T13:00:15.755Z,9.25
2023-05-21T13:02:44.975Z,8.68
2023-05-21T13:05:18.039Z,10.10
2023-05-21T13:07:51.348Z,9.15
2023-05-21T13:10:19.508Z,12.38
2023-05-21T13:12:48.004Z,8.70
2023-05-21T13:15:16.090Z,9.80
2023-05-21T13:17:44.059Z,8.50
2023-05-21T13:20:16.848Z,8.57
2023-05-21T13:22:49.733Z,8.07
2023-05-21T13:25:23.745Z,9.27
2023-05-21T13:27:53.588Z,10.48
2023-05-21T13:32:50.731Z,11.00
2023-05-21T13:35:18.997Z,7.85
2023-05-21T13:37:46.961Z,9.65
2023-05-21T13:40:16.732Z,9.77
2023-05-21T13:45:15.442Z,9.35
2023-05-21T13:47:44.612Z,8.90
2023-05-21T13:50:13.429Z,9.70
2023-05-21T13:52:41.892Z,8.50
2023-05-21T13:55:11.098Z,11.30
2023-05-21T13:57:40.982Z,8.02
2023-05-21T14:02:43.946Z,7.22
2023-05-21T14:05:12.657Z,7.30
2023-05-21T14:07:40.927Z,7.72
2023-05-21T14:10:09.400Z,8.40
2023-05-21T14:12:38.968Z,7.38
2023-05-21T14:15:07.832Z,7.85
2023-05-21T14:17:35.863Z,8.27
2023-05-21T14:20:04.129Z,9.40
2023-05-21T14:22:31.994Z,7.90
2023-05-21T14:25:00.280Z,8.30
2023-05-21T14:27:29.583Z,10.30
2023-05-21T14:29:57.685Z,9.65
2023-05-21T14:32:25.972Z,9.63
2023-05-21T14:34:54.354Z,7.45
2023-05-21T14:37:22.420Z,8.15
2023-05-21T14:39:50.769Z,9.40
2023-05-21T14:42:18.838Z,9.40
2023-05-21T14:44:47.099Z,8.05
2023-05-21T14:47:18.261Z,6.78
2023-05-21T14:49:46.315Z,9.32
2023-05-21T14:52:14.345Z,8.15
2023-05-21T14:54:42.388Z,9.10
2023-05-21T14:57:10.755Z,8.23
2023-05-21T14:59:39.239Z,10.10
2023-05-21T15:02:07.647Z,7.38
2023-05-21T15:04:36.065Z,7.53
2023-05-21T15:07:04.293Z,7.32
2023-05-21T15:09:32.252Z,7.43
2023-05-21T15:12:00.195Z,9.73
2023-05-21T15:14:28.413Z,8.07
2023-05-21T15:16:56.302Z,9.02
2023-05-21T15:19:25.201Z,9.73
2023-05-21T15:21:53.638Z,10.27
2023-05-21T15:24:22.199Z,8.38
2023-05-21T15:26:50.105Z,8.65
2023-05-21T15:29:18.066Z,8.00
2023-05-21T15:31:53.428Z,8.23
2023-05-21T15:34:21.391Z,13.88
2023-05-21T15:36:49.255Z,9.95
2023-05-21T15:39:17.169Z,8.40
2023-05-21T15:41:48.226Z,8.90
2023-05-21T15:44:17.409Z,8.90
2023-05-21T15:46:45.893Z,8.38
2023-05-21T15:49:15.151Z,10.10
2023-05-21T15:51:44.512Z,6.95
2023-05-21T15:54:12.759Z,8.20
2023-05-21T15:56:42.203Z,8.07
2023-05-21T15:59:10.425Z,7.28
2023-05-21T16:01:38.686Z,9.15
2023-05-21T16:04:06.958Z,10.85
2023-05-21T16:06:34.950Z,8.65
2023-05-21T16:09:03.082Z,9.05
2023-05-21T16:11:31.385Z,9.95
2023-05-21T16:13:59.218Z,9.35
2023-05-21T16:16:27.081Z,9.27
2023-05-21T16:18:55.719Z,19.55
2023-05-21T16:21:24.209Z,10.63
2023-05-21T16:23:52.186Z,8.98
2023-05-21T16:26:20.462Z,9.32
2023-05-21T16:28:48.680Z,7.20
2023-05-21T16:31:16.693Z,9.85
2023-05-21T16:33:44.868Z,7.70
2023-05-21T16:36:12.759Z,9.20
2023-05-21T16:38:40.643Z,11.30
2023-05-21T16:41:08.421Z,9.35
2023-05-21T16:43:37.446Z,8.38
2023-05-21T16:46:05.554Z,13.07
2023-05-21T16:48:34.067Z,7.95
2023-05-21T16:51:03.154Z,7.85
2023-05-21T16:53:31.033Z,9.48
2023-05-21T16:55:59.117Z,8.63
2023-05-21T16:58:27.086Z,9.38
2023-05-21T17:00:55.015Z,9.35
2023-05-21T17:03:23.463Z,9.32
2023-05-21T17:05:53.197Z,21.75
2023-05-21T17:08:21.467Z,9.63
2023-05-21T17:10:49.382Z,8.95
2023-05-21T17:13:22.231Z,9.18
2023-05-21T17:15:54.703Z,10.60
2023-05-21T17:18:22.906Z,8.13
2023-05-21T17:20:56.112Z,7.20
2023-05-21T17:23:26.499Z,8.60
2023-05-21T17:25:54.657Z,8.23
2023-05-21T17:28:22.779Z,8.00
2023-05-21T17:30:50.855Z,9.18
2023-05-21T17:33:21.664Z,8.65
2023-05-21T17:35:49.623Z,11.35
2023-05-21T17:38:17.692Z,8.85
2023-05-21T17:40:45.684Z,9.00
2023-05-21T17:43:13.682Z,8.27
2023-05-21T17:45:41.760Z,7.25
2023-05-21T17:48:09.865Z,8.75
2023-05-21T17:50:38.172Z,8.00
2023-05-21T17:53:06.255Z,8.23
2023-05-21T17:55:34.742Z,7.45
2023-05-21T17:58:02.907Z,11.60
2023-05-21T18:00:32.352Z,7.47
2023-05-21T18:03:00.235Z,7.43
2023-05-21T18:05:28.222Z,6.93
2023-05-21T18:07:59.148Z,9.10
2023-05-21T18:10:27.092Z,12.77
2023-05-21T18:12:55.282Z,7.30
2023-05-21T18:15:23.192Z,7.82
2023-05-21T18:17:51.378Z,7.40
2023-05-21T18:20:19.561Z,9.25
2023-05-21T18:22:47.565Z,7.07
2023-05-21T18:25:15.523Z,7.20
2023-05-21T18:27:43.295Z,7.70
2023-05-21T18:30:11.733Z,8.77
2023-05-21T18:32:39.697Z,7.75
2023-05-21T18:35:10.933Z,9.25
2023-05-21T18:37:39.298Z,6.90
2023-05-21T18:40:07.694Z,8.55
2023-05-21T18:42:36.151Z,6.95
2023-05-21T18:45:11.404Z,8.02
2023-05-21T18:47:40.605Z,6.43
2023-05-21T18:50:15.566Z,6.72
2023-05-21T18:52:43.629Z,7.82
2023-05-21T18:55:11.510Z,7.70
2023-05-21T18:57:40.276Z,8.02
2023-05-21T19:00:09.969Z,7.68
2023-05-21T19:02:38.216Z,8.00
2023-05-21T19:05:07.387Z,8.25
2023-05-21T19:07:36.464Z,6.28
2023-05-21T19:10:04.848Z,7.25
2023-05-21T19:12:34.226Z,7.25
2023-05-21T19:15:02.323Z,10.30
2023-05-21T19:17:30.342Z,8.27
2023-05-21T19:19:59.588Z,9.50
2023-05-21T19:22:28.372Z,6.85
2023-05-21T19:24:56.701Z,8.07
2023-05-21T19:27:24.855Z,7.00
2023-05-21T19:29:53.079Z,10.77
2023-05-21T19:32:21.952Z,9.60
2023-05-21T19:34:50.288Z,6.30
2023-05-21T19:37:18.116Z,9.00
2023-05-21T19:39:49.780Z,6.15
2023-05-21T19:42:20.040Z,7.22
2023-05-21T19:44:48.183Z,8.07
2023-05-21T19:47:16.188Z,7.55
2023-05-21T19:49:44.110Z,6.45
2023-05-21T19:52:12.584Z,6.50
2023-05-21T19:54:40.727Z,6.07
2023-05-21T19:57:10.251Z,6.53
2023-05-21T19:59:40.146Z,6.57
2023-05-21T20:02:10.109Z,5.50
2023-05-21T20:04:38.299Z,6.63
2023-05-21T20:07:06.847Z,6.63
2023-05-21T20:09:35.026Z,12.65
2023-05-21T20:12:03.555Z,6.88
2023-05-21T20:14:33.753Z,11.10
2023-05-21T20:17:02.396Z,8.13
2023-05-21T20:19:30.662Z,6.43
2023-05-21T20:21:59.073Z,5.90
2023-05-21T20:24:27.089Z,5.03
2023-05-21T20:26:55.405Z,6.65
2023-05-21T20:29:23.238Z,7.47
2023-05-21T20:31:51.124Z,5.72
2023-05-21T20:34:21.122Z,5.30
2023-05-21T20:36:49.178Z,6.68
2023-05-21T20:39:19.693Z,6.97
2023-05-21T20:41:47.912Z,5.15
2023-05-21T20:44:16.367Z,6.45
2023-05-21T20:46:44.337Z,5.13
2023-05-21T20:49:12.562Z,5.78
2023-05-21T20:51:41.597Z,6.57
2023-05-21T20:54:11.124Z,5.68
2023-05-21T20:56:42.586Z,6.30
2023-05-21T20:59:12.264Z,5.57
2023-05-21T21:01:41.180Z,4.50
2023-05-21T21:04:09.326Z,7.47
2023-05-21T21:06:38.699Z,6.40
2023-05-21T21:09:06.580Z,5.43
2023-05-21T21:11:34.603Z,7.72
2023-05-21T21:14:03.101Z,5.72
2023-05-21T21:16:31.133Z,5.43
2023-05-21T21:18:59.345Z,5.22
2023-05-21T21:21:27.936Z,4.68
2023-05-21T21:23:56.380Z,5.07
2023-05-21T21:26:25.027Z,6.75
2023-05-21T21:28:52.964Z,5.90
2023-05-21T21:31:21.430Z,6.40
2023-05-21T21:33:49.358Z,5.15
2023-05-21T21:36:17.334Z,6.00
2023-05-21T21:38:45.382Z,6.07
2023-05-21T21:41:13.784Z,7.60
2023-05-21T21:43:41.846Z,5.97
2023-05-21T21:46:09.861Z,9.25
2023-05-21T21:48:38.029Z,5.65
2023-05-21T21:51:06.019Z,6.28
2023-05-21T21:53:34.240Z,5.28
2023-05-21T21:56:02.139Z,5.45
2023-05-21T21:58:30.013Z,5.68
2023-05-21T22:00:57.917Z,7.00
2023-05-21T22:03:26.003Z,7.70
2023-05-21T22:05:57.330Z,7.05
2023-05-21T22:10:53.807Z,4.38
2023-05-21T22:13:21.833Z,4.60
2023-05-21T22:15:58.816Z,4.97
2023-05-21T22:18:39.503Z,6.97
2023-05-21T22:21:10.160Z,6.35
2023-05-21T22:23:39.162Z,5.38
2023-05-21T22:26:07.642Z,7.07
2023-05-21T22:28:35.666Z,5.75
2023-05-21T22:31:03.893Z,6.38
2023-05-21T22:33:32.413Z,5.10
2023-05-21T22:36:00.424Z,6.22
2023-05-21T22:38:28.334Z,5.00
2023-05-21T22:40:56.391Z,5.10
2023-05-21T22:43:28.670Z,5.82
2023-05-21T22:45:56.846Z,5.45
2023-05-21T22:48:24.714Z,6.03
2023-05-21T22:50:53.723Z,5.10
2023-05-21T22:53:21.945Z,5.78
2023-05-21T22:55:50.325Z,6.25
2023-05-21T22:58:18.977Z,5.80
2023-05-21T23:00:48.276Z,6.85
2023-05-21T23:03:17.040Z,5.35
2023-05-21T23:05:45.730Z,5.20
2023-05-21T23:08:14.012Z,5.95
2023-05-21T23:10:42.895Z,6.30
2023-05-21T23:13:12.947Z,6.18
2023-05-21T23:15:44.023Z,4.93
2023-05-21T23:20:41.570Z,4.88
2023-05-21T23:23:10.537Z,6.20
2023-05-21T23:25:38.400Z,6.45
2023-05-21T23:28:06.329Z,5.60
2023-05-21T23:30:34.357Z,6.32
2023-05-21T23:33:02.850Z,5.28
2023-05-21T23:35:30.854Z,7.97
2023-05-21T23:37:58.831Z,8.55
2023-05-21T23:40:26.906Z,5.85
2023-05-21T23:42:55.170Z,5.88
2023-05-21T23:45:23.699Z,5.85
2023-05-21T23:47:52.363Z,6.78
2023-05-21T23:50:20.277Z,6.00
2023-05-21T23:52:50.668Z,8.63
2023-05-21T23:55:18.599Z,7.03
2023-05-21T23:57:46.424Z,10.07
